sensor_id;sensor_type;location;lat;lon;timestamp;P1;durP1;ratioP1;P2;durP2;ratioP2
78858;SDS011;68210;52.032;4.634;2024-02-26T00:00:42;3.63;;;2.67;;
78858;SDS011;68210;52.032;4.634;2024-02-26T00:02:42;4.82;;;3.20;;
78858;SDS011;68210;52.032;4.634;2024-02-26T00:04:42;4.57;;;2.50;;
78858;SDS011;68210;52.032;4.634;2024-02-26T00:06:43;4.80;;;2.88;;
78858;SDS011;68210;52.032;4.634;2024-02-26T00:08:43;4.82;;;3.10;;
78858;SDS011;68210;52.032;4.634;2024-02-26T00:10:44;5.10;;;2.97;;
78858;SDS011;68210;52.032;4.634;2024-02-26T00:12:44;4.75;;;2.67;;
78858;SDS011;68210;52.032;4.634;2024-02-26T00:14:45;6.43;;;2.80;;
78858;SDS011;68210;52.032;4.634;2024-02-26T00:16:47;6.25;;;3.33;;
78858;SDS011;68210;52.032;4.634;2024-02-26T00:18:47;4.45;;;2.70;;
78858;SDS011;68210;52.032;4.634;2024-02-26T00:20:47;4.50;;;2.63;;
78858;SDS011;68210;52.032;4.634;2024-02-26T00:22:48;5.25;;;3.10;;
78858;SDS011;68210;52.032;4.634;2024-02-26T00:24:48;4.85;;;3.17;;
78858;SDS011;68210;52.032;4.634;2024-02-26T00:26:48;4.38;;;2.70;;
78858;SDS011;68210;52.032;4.634;2024-02-26T00:28:52;4.47;;;2.58;;
78858;SDS011;68210;52.032;4.634;2024-02-26T00:30:53;7.72;;;3.13;;
78858;SDS011;68210;52.032;4.634;2024-02-26T00:32:55;5.35;;;3.60;;
78858;SDS011;68210;52.032;4.634;2024-02-26T00:34:56;4.05;;;2.45;;
78858;SDS011;68210;52.032;4.634;2024-02-26T00:36:56;6.20;;;2.90;;
78858;SDS011;68210;52.032;4.634;2024-02-26T00:39:00;5.63;;;3.05;;
78858;SDS011;68210;52.032;4.634;2024-02-26T00:41:00;3.63;;;2.55;;
78858;SDS011;68210;52.032;4.634;2024-02-26T00:43:00;7.45;;;2.75;;
78858;SDS011;68210;52.032;4.634;2024-02-26T00:45:02;4.47;;;2.88;;
78858;SDS011;68210;52.032;4.634;2024-02-26T00:47:03;4.38;;;2.88;;
78858;SDS011;68210;52.032;4.634;2024-02-26T00:49:03;4.32;;;2.60;;
78858;SDS011;68210;52.032;4.634;2024-02-26T00:51:04;4.03;;;2.63;;
78858;SDS011;68210;52.032;4.634;2024-02-26T00:53:08;4.72;;;2.80;;
78858;SDS011;68210;52.032;4.634;2024-02-26T00:55:08;5.25;;;2.70;;
78858;SDS011;68210;52.032;4.634;2024-02-26T00:57:09;3.50;;;2.70;;
78858;SDS011;68210;52.032;4.634;2024-02-26T00:59:10;4.00;;;2.67;;
78858;SDS011;68210;52.032;4.634;2024-02-26T01:01:10;4.35;;;2.97;;
78858;SDS011;68210;52.032;4.634;2024-02-26T01:03:10;5.15;;;3.17;;
78858;SDS011;68210;52.032;4.634;2024-02-26T01:05:11;4.28;;;2.90;;
78858;SDS011;68210;52.032;4.634;2024-02-26T01:07:11;5.80;;;3.10;;
78858;SDS011;68210;52.032;4.634;2024-02-26T01:09:11;4.45;;;2.65;;
78858;SDS011;68210;52.032;4.634;2024-02-26T01:11:12;4.93;;;3.03;;
78858;SDS011;68210;52.032;4.634;2024-02-26T01:13:12;5.57;;;2.83;;
78858;SDS011;68210;52.032;4.634;2024-02-26T01:15:12;5.60;;;3.00;;
78858;SDS011;68210;52.032;4.634;2024-02-26T01:17:13;5.50;;;2.72;;
78858;SDS011;68210;52.032;4.634;2024-02-26T01:19:13;5.25;;;3.38;;
78858;SDS011;68210;52.032;4.634;2024-02-26T01:21:13;4.88;;;3.22;;
78858;SDS011;68210;52.032;4.634;2024-02-26T01:23:14;8.48;;;3.05;;
78858;SDS011;68210;52.032;4.634;2024-02-26T01:25:14;6.55;;;3.47;;
78858;SDS011;68210;52.032;4.634;2024-02-26T01:27:15;5.25;;;3.70;;
78858;SDS011;68210;52.032;4.634;2024-02-26T01:29:16;6.57;;;3.55;;
78858;SDS011;68210;52.032;4.634;2024-02-26T01:31:16;5.72;;;3.47;;
78858;SDS011;68210;52.032;4.634;2024-02-26T01:33:16;5.53;;;3.42;;
78858;SDS011;68210;52.032;4.634;2024-02-26T01:35:17;4.82;;;3.20;;
78858;SDS011;68210;52.032;4.634;2024-02-26T01:37:19;5.57;;;3.67;;
78858;SDS011;68210;52.032;4.634;2024-02-26T01:39:20;5.07;;;3.42;;
78858;SDS011;68210;52.032;4.634;2024-02-26T01:41:20;6.45;;;3.53;;
78858;SDS011;68210;52.032;4.634;2024-02-26T01:43:21;7.57;;;3.90;;
78858;SDS011;68210;52.032;4.634;2024-02-26T01:45:22;5.07;;;3.70;;
78858;SDS011;68210;52.032;4.634;2024-02-26T01:47:24;6.28;;;3.75;;
78858;SDS011;68210;52.032;4.634;2024-02-26T01:49:25;5.90;;;3.80;;
78858;SDS011;68210;52.032;4.634;2024-02-26T01:51:26;4.32;;;3.40;;
78858;SDS011;68210;52.032;4.634;2024-02-26T01:53:27;7.38;;;4.15;;
78858;SDS011;68210;52.032;4.634;2024-02-26T01:55:27;6.28;;;4.03;;
78858;SDS011;68210;52.032;4.634;2024-02-26T01:57:27;4.63;;;3.25;;
78858;SDS011;68210;52.032;4.634;2024-02-26T01:59:28;6.57;;;3.58;;
78858;SDS011;68210;52.032;4.634;2024-02-26T02:01:29;5.13;;;3.88;;
78858;SDS011;68210;52.032;4.634;2024-02-26T02:03:31;6.10;;;3.95;;
78858;SDS011;68210;52.032;4.634;2024-02-26T02:05:31;6.80;;;4.30;;
78858;SDS011;68210;52.032;4.634;2024-02-26T02:07:34;5.60;;;4.25;;
78858;SDS011;68210;52.032;4.634;2024-02-26T02:09:35;6.25;;;3.65;;
78858;SDS011;68210;52.032;4.634;2024-02-26T02:11:36;5.57;;;3.90;;
78858;SDS011;68210;52.032;4.634;2024-02-26T02:13:37;5.93;;;4.07;;
78858;SDS011;68210;52.032;4.634;2024-02-26T02:15:38;6.45;;;4.18;;
78858;SDS011;68210;52.032;4.634;2024-02-26T02:17:38;6.22;;;4.03;;
78858;SDS011;68210;52.032;4.634;2024-02-26T02:19:38;7.25;;;4.07;;
78858;SDS011;68210;52.032;4.634;2024-02-26T02:21:39;4.95;;;3.58;;
78858;SDS011;68210;52.032;4.634;2024-02-26T02:23:39;9.05;;;5.00;;
78858;SDS011;68210;52.032;4.634;2024-02-26T02:25:46;8.73;;;4.45;;
78858;SDS011;68210;52.032;4.634;2024-02-26T02:27:46;6.68;;;4.57;;
78858;SDS011;68210;52.032;4.634;2024-02-26T02:29:47;8.00;;;4.65;;
78858;SDS011;68210;52.032;4.634;2024-02-26T02:31:48;6.70;;;4.07;;
78858;SDS011;68210;52.032;4.634;2024-02-26T02:33:49;7.32;;;4.28;;
78858;SDS011;68210;52.032;4.634;2024-02-26T02:35:49;7.40;;;3.92;;
78858;SDS011;68210;52.032;4.634;2024-02-26T02:37:51;5.90;;;3.90;;
78858;SDS011;68210;52.032;4.634;2024-02-26T02:39:53;6.38;;;3.97;;
78858;SDS011;68210;52.032;4.634;2024-02-26T02:41:54;5.90;;;4.13;;
78858;SDS011;68210;52.032;4.634;2024-02-26T02:43:55;6.25;;;4.55;;
78858;SDS011;68210;52.032;4.634;2024-02-26T02:45:55;7.45;;;4.45;;
78858;SDS011;68210;52.032;4.634;2024-02-26T02:47:56;6.20;;;3.80;;
78858;SDS011;68210;52.032;4.634;2024-02-26T02:49:56;6.38;;;4.28;;
78858;SDS011;68210;52.032;4.634;2024-02-26T02:51:56;7.20;;;4.30;;
78858;SDS011;68210;52.032;4.634;2024-02-26T02:53:57;6.57;;;4.32;;
78858;SDS011;68210;52.032;4.634;2024-02-26T02:55:57;6.97;;;4.55;;
78858;SDS011;68210;52.032;4.634;2024-02-26T02:57:58;8.98;;;4.68;;
78858;SDS011;68210;52.032;4.634;2024-02-26T02:59:58;7.03;;;4.40;;
78858;SDS011;68210;52.032;4.634;2024-02-26T03:01:58;10.00;;;4.28;;
78858;SDS011;68210;52.032;4.634;2024-02-26T03:03:59;7.95;;;4.43;;
78858;SDS011;68210;52.032;4.634;2024-02-26T03:05:59;7.63;;;4.25;;
78858;SDS011;68210;52.032;4.634;2024-02-26T03:07:59;7.63;;;4.38;;
78858;SDS011;68210;52.032;4.634;2024-02-26T03:10:00;8.68;;;4.43;;
78858;SDS011;68210;52.032;4.634;2024-02-26T03:12:00;6.47;;;4.15;;
78858;SDS011;68210;52.032;4.634;2024-02-26T03:14:01;7.65;;;4.35;;
78858;SDS011;68210;52.032;4.634;2024-02-26T03:16:05;6.53;;;4.32;;
78858;SDS011;68210;52.032;4.634;2024-02-26T03:18:05;7.20;;;4.55;;
78858;SDS011;68210;52.032;4.634;2024-02-26T03:20:06;7.60;;;4.30;;
78858;SDS011;68210;52.032;4.634;2024-02-26T03:22:08;7.35;;;4.57;;
78858;SDS011;68210;52.032;4.634;2024-02-26T03:24:08;6.75;;;4.72;;
78858;SDS011;68210;52.032;4.634;2024-02-26T03:26:11;8.00;;;4.95;;
78858;SDS011;68210;52.032;4.634;2024-02-26T03:28:14;9.23;;;5.15;;
78858;SDS011;68210;52.032;4.634;2024-02-26T03:30:15;8.25;;;4.60;;
78858;SDS011;68210;52.032;4.634;2024-02-26T03:32:16;10.48;;;5.47;;
78858;SDS011;68210;52.032;4.634;2024-02-26T03:34:16;8.88;;;4.57;;
78858;SDS011;68210;52.032;4.634;2024-02-26T03:36:18;7.38;;;4.43;;
78858;SDS011;68210;52.032;4.634;2024-02-26T03:38:19;9.38;;;5.22;;
78858;SDS011;68210;52.032;4.634;2024-02-26T03:40:19;8.13;;;4.85;;
78858;SDS011;68210;52.032;4.634;2024-02-26T03:42:19;7.70;;;4.82;;
78858;SDS011;68210;52.032;4.634;2024-02-26T03:44:20;9.73;;;4.75;;
78858;SDS011;68210;52.032;4.634;2024-02-26T03:46:20;8.43;;;5.13;;
78858;SDS011;68210;52.032;4.634;2024-02-26T03:48:20;8.10;;;4.90;;
78858;SDS011;68210;52.032;4.634;2024-02-26T03:50:21;8.60;;;5.18;;
78858;SDS011;68210;52.032;4.634;2024-02-26T03:52:21;7.35;;;4.93;;
78858;SDS011;68210;52.032;4.634;2024-02-26T03:54:21;6.03;;;4.22;;
78858;SDS011;68210;52.032;4.634;2024-02-26T03:56:22;7.35;;;4.70;;
78858;SDS011;68210;52.032;4.634;2024-02-26T03:58:23;7.85;;;4.70;;
78858;SDS011;68210;52.032;4.634;2024-02-26T04:00:23;9.68;;;4.35;;
78858;SDS011;68210;52.032;4.634;2024-02-26T04:02:25;7.00;;;4.32;;
78858;SDS011;68210;52.032;4.634;2024-02-26T04:04:26;7.70;;;5.15;;
78858;SDS011;68210;52.032;4.634;2024-02-26T04:06:27;12.55;;;5.65;;
78858;SDS011;68210;52.032;4.634;2024-02-26T04:08:27;10.18;;;5.32;;
78858;SDS011;68210;52.032;4.634;2024-02-26T04:10:27;10.48;;;5.43;;
78858;SDS011;68210;52.032;4.634;2024-02-26T04:12:28;9.40;;;5.10;;
78858;SDS011;68210;52.032;4.634;2024-02-26T04:14:28;7.35;;;3.97;;
78858;SDS011;68210;52.032;4.634;2024-02-26T04:16:29;8.57;;;5.57;;
78858;SDS011;68210;52.032;4.634;2024-02-26T04:18:29;9.63;;;5.10;;
78858;SDS011;68210;52.032;4.634;2024-02-26T04:20:30;9.82;;;5.50;;
78858;SDS011;68210;52.032;4.634;2024-02-26T04:22:30;8.80;;;5.18;;
78858;SDS011;68210;52.032;4.634;2024-02-26T04:24:31;9.95;;;5.68;;
78858;SDS011;68210;52.032;4.634;2024-02-26T04:26:31;10.85;;;5.85;;
78858;SDS011;68210;52.032;4.634;2024-02-26T04:28:31;10.05;;;5.93;;
78858;SDS011;68210;52.032;4.634;2024-02-26T04:30:32;9.20;;;5.22;;
78858;SDS011;68210;52.032;4.634;2024-02-26T04:32:32;12.27;;;6.30;;
78858;SDS011;68210;52.032;4.634;2024-02-26T04:34:34;11.07;;;6.13;;
78858;SDS011;68210;52.032;4.634;2024-02-26T04:36:35;9.82;;;5.15;;
78858;SDS011;68210;52.032;4.634;2024-02-26T04:38:35;11.13;;;6.22;;
78858;SDS011;68210;52.032;4.634;2024-02-26T04:40:35;11.57;;;6.72;;
78858;SDS011;68210;52.032;4.634;2024-02-26T04:42:36;11.88;;;6.05;;
78858;SDS011;68210;52.032;4.634;2024-02-26T04:44:36;10.90;;;5.80;;
78858;SDS011;68210;52.032;4.634;2024-02-26T04:46:37;11.32;;;5.80;;
78858;SDS011;68210;52.032;4.634;2024-02-26T04:48:37;11.40;;;6.07;;
78858;SDS011;68210;52.032;4.634;2024-02-26T04:50:38;11.10;;;5.93;;
78858;SDS011;68210;52.032;4.634;2024-02-26T04:52:38;10.57;;;5.63;;
78858;SDS011;68210;52.032;4.634;2024-02-26T04:54:39;11.00;;;5.82;;
78858;SDS011;68210;52.032;4.634;2024-02-26T04:56:39;11.73;;;6.05;;
78858;SDS011;68210;52.032;4.634;2024-02-26T04:58:39;11.52;;;6.05;;
78858;SDS011;68210;52.032;4.634;2024-02-26T05:00:40;9.10;;;5.53;;
78858;SDS011;68210;52.032;4.634;2024-02-26T05:02:40;11.48;;;5.80;;
78858;SDS011;68210;52.032;4.634;2024-02-26T05:04:41;11.10;;;6.32;;
78858;SDS011;68210;52.032;4.634;2024-02-26T05:06:41;12.82;;;6.72;;
78858;SDS011;68210;52.032;4.634;2024-02-26T05:08:41;11.35;;;6.43;;
78858;SDS011;68210;52.032;4.634;2024-02-26T05:10:45;11.43;;;5.88;;
78858;SDS011;68210;52.032;4.634;2024-02-26T05:12:45;11.30;;;6.07;;
78858;SDS011;68210;52.032;4.634;2024-02-26T05:14:46;12.63;;;6.55;;
78858;SDS011;68210;52.032;4.634;2024-02-26T05:16:46;11.52;;;6.20;;
78858;SDS011;68210;52.032;4.634;2024-02-26T05:18:48;12.18;;;6.32;;
78858;SDS011;68210;52.032;4.634;2024-02-26T05:20:48;12.23;;;5.97;;
78858;SDS011;68210;52.032;4.634;2024-02-26T05:22:48;11.60;;;5.35;;
78858;SDS011;68210;52.032;4.634;2024-02-26T05:24:49;11.38;;;6.00;;
78858;SDS011;68210;52.032;4.634;2024-02-26T05:26:51;12.13;;;6.60;;
78858;SDS011;68210;52.032;4.634;2024-02-26T05:28:51;12.25;;;6.63;;
78858;SDS011;68210;52.032;4.634;2024-02-26T05:30:52;13.18;;;6.60;;
78858;SDS011;68210;52.032;4.634;2024-02-26T05:32:52;12.52;;;6.88;;
78858;SDS011;68210;52.032;4.634;2024-02-26T05:34:52;12.30;;;6.18;;
78858;SDS011;68210;52.032;4.634;2024-02-26T05:36:53;11.60;;;5.85;;
78858;SDS011;68210;52.032;4.634;2024-02-26T05:38:53;12.55;;;6.35;;
78858;SDS011;68210;52.032;4.634;2024-02-26T05:40:54;12.93;;;6.15;;
78858;SDS011;68210;52.032;4.634;2024-02-26T05:42:55;13.25;;;6.35;;
78858;SDS011;68210;52.032;4.634;2024-02-26T05:44:55;11.48;;;6.07;;
78858;SDS011;68210;52.032;4.634;2024-02-26T05:46:55;11.98;;;6.07;;
78858;SDS011;68210;52.032;4.634;2024-02-26T05:48:56;12.68;;;6.32;;
78858;SDS011;68210;52.032;4.634;2024-02-26T05:50:56;12.45;;;6.88;;
78858;SDS011;68210;52.032;4.634;2024-02-26T05:52:56;10.68;;;5.75;;
78858;SDS011;68210;52.032;4.634;2024-02-26T05:54:57;10.57;;;6.03;;
78858;SDS011;68210;52.032;4.634;2024-02-26T05:56:57;12.90;;;7.63;;
78858;SDS011;68210;52.032;4.634;2024-02-26T05:58:58;10.88;;;6.30;;
78858;SDS011;68210;52.032;4.634;2024-02-26T06:00:58;14.48;;;7.68;;
78858;SDS011;68210;52.032;4.634;2024-02-26T06:03:00;12.52;;;6.60;;
78858;SDS011;68210;52.032;4.634;2024-02-26T06:05:00;12.38;;;5.88;;
78858;SDS011;68210;52.032;4.634;2024-02-26T06:07:00;12.55;;;6.28;;
78858;SDS011;68210;52.032;4.634;2024-02-26T06:09:01;13.07;;;7.18;;
78858;SDS011;68210;52.032;4.634;2024-02-26T06:11:04;13.75;;;6.93;;
78858;SDS011;68210;52.032;4.634;2024-02-26T06:13:06;14.75;;;7.05;;
78858;SDS011;68210;52.032;4.634;2024-02-26T06:15:07;13.90;;;6.55;;
78858;SDS011;68210;52.032;4.634;2024-02-26T06:17:07;14.73;;;7.00;;
78858;SDS011;68210;52.032;4.634;2024-02-26T06:19:08;12.55;;;6.53;;
78858;SDS011;68210;52.032;4.634;2024-02-26T06:21:11;13.00;;;6.82;;
78858;SDS011;68210;52.032;4.634;2024-02-26T06:23:11;14.45;;;7.50;;
78858;SDS011;68210;52.032;4.634;2024-02-26T06:25:11;14.93;;;7.25;;
78858;SDS011;68210;52.032;4.634;2024-02-26T06:27:12;14.90;;;7.47;;
78858;SDS011;68210;52.032;4.634;2024-02-26T06:29:12;17.42;;;7.65;;
78858;SDS011;68210;52.032;4.634;2024-02-26T06:31:13;17.40;;;8.65;;
78858;SDS011;68210;52.032;4.634;2024-02-26T06:33:13;17.40;;;8.02;;
78858;SDS011;68210;52.032;4.634;2024-02-26T06:35:14;16.48;;;8.07;;
78858;SDS011;68210;52.032;4.634;2024-02-26T06:37:14;17.80;;;8.32;;
78858;SDS011;68210;52.032;4.634;2024-02-26T06:39:15;21.27;;;10.63;;
78858;SDS011;68210;52.032;4.634;2024-02-26T06:41:16;16.08;;;7.88;;
78858;SDS011;68210;52.032;4.634;2024-02-26T06:43:16;18.40;;;8.95;;
78858;SDS011;68210;52.032;4.634;2024-02-26T06:45:17;16.63;;;8.13;;
78858;SDS011;68210;52.032;4.634;2024-02-26T06:47:18;19.85;;;8.90;;
78858;SDS011;68210;52.032;4.634;2024-02-26T06:49:19;19.52;;;8.35;;
78858;SDS011;68210;52.032;4.634;2024-02-26T06:51:20;19.05;;;8.95;;
78858;SDS011;68210;52.032;4.634;2024-02-26T06:53:20;17.10;;;8.30;;
78858;SDS011;68210;52.032;4.634;2024-02-26T06:55:20;27.50;;;10.55;;
78858;SDS011;68210;52.032;4.634;2024-02-26T06:57:21;21.10;;;9.90;;
78858;SDS011;68210;52.032;4.634;2024-02-26T06:59:21;23.58;;;10.85;;
78858;SDS011;68210;52.032;4.634;2024-02-26T07:01:22;23.25;;;11.10;;
78858;SDS011;68210;52.032;4.634;2024-02-26T07:03:22;21.83;;;10.82;;
78858;SDS011;68210;52.032;4.634;2024-02-26T07:05:24;20.35;;;10.27;;
78858;SDS011;68210;52.032;4.634;2024-02-26T07:07:24;20.33;;;9.93;;
78858;SDS011;68210;52.032;4.634;2024-02-26T07:09:25;23.10;;;10.43;;
78858;SDS011;68210;52.032;4.634;2024-02-26T07:11:25;19.13;;;10.13;;
78858;SDS011;68210;52.032;4.634;2024-02-26T07:13:26;22.45;;;10.60;;
78858;SDS011;68210;52.032;4.634;2024-02-26T07:15:27;21.38;;;11.00;;
78858;SDS011;68210;52.032;4.634;2024-02-26T07:17:28;20.67;;;10.23;;
78858;SDS011;68210;52.032;4.634;2024-02-26T07:19:28;22.10;;;11.00;;
78858;SDS011;68210;52.032;4.634;2024-02-26T07:21:28;23.40;;;11.30;;
78858;SDS011;68210;52.032;4.634;2024-02-26T07:23:29;23.60;;;11.15;;
78858;SDS011;68210;52.032;4.634;2024-02-26T07:25:29;22.83;;;11.32;;
78858;SDS011;68210;52.032;4.634;2024-02-26T07:27:30;22.70;;;11.98;;
78858;SDS011;68210;52.032;4.634;2024-02-26T07:29:30;23.83;;;10.93;;
78858;SDS011;68210;52.032;4.634;2024-02-26T07:31:30;25.73;;;11.65;;
78858;SDS011;68210;52.032;4.634;2024-02-26T07:33:31;22.77;;;11.00;;
78858;SDS011;68210;52.032;4.634;2024-02-26T07:35:31;21.65;;;11.18;;
78858;SDS011;68210;52.032;4.634;2024-02-26T07:37:33;22.17;;;12.20;;
78858;SDS011;68210;52.032;4.634;2024-02-26T07:39:34;22.88;;;11.05;;
78858;SDS011;68210;52.032;4.634;2024-02-26T07:41:34;19.83;;;9.77;;
78858;SDS011;68210;52.032;4.634;2024-02-26T07:43:35;21.48;;;11.25;;
78858;SDS011;68210;52.032;4.634;2024-02-26T07:45:35;21.30;;;11.05;;
78858;SDS011;68210;52.032;4.634;2024-02-26T07:47:36;21.35;;;10.90;;
78858;SDS011;68210;52.032;4.634;2024-02-26T07:49:40;20.88;;;10.68;;
78858;SDS011;68210;52.032;4.634;2024-02-26T07:51:41;19.58;;;10.20;;
78858;SDS011;68210;52.032;4.634;2024-02-26T07:53:42;18.70;;;9.85;;
78858;SDS011;68210;52.032;4.634;2024-02-26T07:55:42;20.92;;;10.75;;
78858;SDS011;68210;52.032;4.634;2024-02-26T07:57:42;17.10;;;9.15;;
78858;SDS011;68210;52.032;4.634;2024-02-26T07:59:46;18.48;;;10.45;;
78858;SDS011;68210;52.032;4.634;2024-02-26T08:01:50;16.75;;;8.95;;
78858;SDS011;68210;52.032;4.634;2024-02-26T08:03:51;19.00;;;10.13;;
78858;SDS011;68210;52.032;4.634;2024-02-26T08:05:52;17.42;;;9.18;;
78858;SDS011;68210;52.032;4.634;2024-02-26T08:07:52;17.88;;;8.75;;
78858;SDS011;68210;52.032;4.634;2024-02-26T08:09:52;17.02;;;9.25;;
78858;SDS011;68210;52.032;4.634;2024-02-26T08:11:53;18.27;;;9.80;;
78858;SDS011;68210;52.032;4.634;2024-02-26T08:13:53;16.90;;;8.30;;
78858;SDS011;68210;52.032;4.634;2024-02-26T08:15:54;15.88;;;8.75;;
78858;SDS011;68210;52.032;4.634;2024-02-26T08:17:55;14.95;;;8.07;;
78858;SDS011;68210;52.032;4.634;2024-02-26T08:19:55;15.98;;;8.27;;
78858;SDS011;68210;52.032;4.634;2024-02-26T08:21:57;13.98;;;8.05;;
78858;SDS011;68210;52.032;4.634;2024-02-26T08:23:57;15.50;;;8.32;;
78858;SDS011;68210;52.032;4.634;2024-02-26T08:25:57;12.52;;;7.28;;
78858;SDS011;68210;52.032;4.634;2024-02-26T08:27:58;14.18;;;7.53;;
78858;SDS011;68210;52.032;4.634;2024-02-26T08:30:01;15.45;;;7.45;;
78858;SDS011;68210;52.032;4.634;2024-02-26T08:32:01;14.13;;;7.10;;
78858;SDS011;68210;52.032;4.634;2024-02-26T08:34:02;12.65;;;6.65;;
78858;SDS011;68210;52.032;4.634;2024-02-26T08:36:06;11.55;;;6.50;;
78858;SDS011;68210;52.032;4.634;2024-02-26T08:38:06;12.27;;;6.30;;
78858;SDS011;68210;52.032;4.634;2024-02-26T08:40:07;13.98;;;6.97;;
78858;SDS011;68210;52.032;4.634;2024-02-26T08:42:07;13.85;;;6.95;;
78858;SDS011;68210;52.032;4.634;2024-02-26T08:44:08;9.80;;;5.82;;
78858;SDS011;68210;52.032;4.634;2024-02-26T08:46:09;11.18;;;6.45;;
78858;SDS011;68210;52.032;4.634;2024-02-26T08:48:10;9.70;;;5.53;;
78858;SDS011;68210;52.032;4.634;2024-02-26T08:50:10;12.18;;;5.88;;
78858;SDS011;68210;52.032;4.634;2024-02-26T08:52:12;10.60;;;5.45;;
78858;SDS011;68210;52.032;4.634;2024-02-26T08:54:12;10.93;;;5.60;;
78858;SDS011;68210;52.032;4.634;2024-02-26T08:56:13;9.60;;;5.35;;
78858;SDS011;68210;52.032;4.634;2024-02-26T08:58:16;8.95;;;4.80;;
78858;SDS011;68210;52.032;4.634;2024-02-26T09:00:17;8.55;;;5.22;;
78858;SDS011;68210;52.032;4.634;2024-02-26T09:04:20;9.97;;;5.50;;
78858;SDS011;68210;52.032;4.634;2024-02-26T09:06:20;8.10;;;5.00;;
78858;SDS011;68210;52.032;4.634;2024-02-26T09:08:21;7.85;;;4.60;;
78858;SDS011;68210;52.032;4.634;2024-02-26T09:10:22;10.18;;;4.90;;
78858;SDS011;68210;52.032;4.634;2024-02-26T09:12:22;9.25;;;4.70;;
78858;SDS011;68210;52.032;4.634;2024-02-26T09:14:22;9.82;;;5.35;;
78858;SDS011;68210;52.032;4.634;2024-02-26T09:16:23;9.32;;;4.95;;
78858;SDS011;68210;52.032;4.634;2024-02-26T09:18:23;9.40;;;4.80;;
78858;SDS011;68210;52.032;4.634;2024-02-26T09:20:23;8.80;;;4.35;;
78858;SDS011;68210;52.032;4.634;2024-02-26T09:22:24;11.40;;;4.78;;
78858;SDS011;68210;52.032;4.634;2024-02-26T09:24:24;7.60;;;4.30;;
78858;SDS011;68210;52.032;4.634;2024-02-26T09:26:26;9.15;;;4.05;;
78858;SDS011;68210;52.032;4.634;2024-02-26T09:28:26;8.48;;;4.95;;
78858;SDS011;68210;52.032;4.634;2024-02-26T09:30:26;9.05;;;4.63;;
78858;SDS011;68210;52.032;4.634;2024-02-26T09:32:27;9.15;;;4.63;;
78858;SDS011;68210;52.032;4.634;2024-02-26T09:34:27;8.88;;;4.38;;
78858;SDS011;68210;52.032;4.634;2024-02-26T09:36:28;8.23;;;3.80;;
78858;SDS011;68210;52.032;4.634;2024-02-26T09:38:28;7.93;;;3.85;;
78858;SDS011;68210;52.032;4.634;2024-02-26T09:40:29;6.78;;;3.90;;
78858;SDS011;68210;52.032;4.634;2024-02-26T09:42:30;7.60;;;4.22;;
78858;SDS011;68210;52.032;4.634;2024-02-26T09:44:33;8.25;;;3.97;;
78858;SDS011;68210;52.032;4.634;2024-02-26T09:46:39;6.57;;;3.85;;
78858;SDS011;68210;52.032;4.634;2024-02-26T09:48:39;6.80;;;3.70;;
78858;SDS011;68210;52.032;4.634;2024-02-26T09:50:42;10.25;;;4.13;;
78858;SDS011;68210;52.032;4.634;2024-02-26T09:52:43;5.78;;;3.45;;
78858;SDS011;68210;52.032;4.634;2024-02-26T09:54:46;5.70;;;3.33;;
78858;SDS011;68210;52.032;4.634;2024-02-26T09:56:47;6.95;;;3.80;;
78858;SDS011;68210;52.032;4.634;2024-02-26T09:58:49;7.53;;;3.65;;
78858;SDS011;68210;52.032;4.634;2024-02-26T10:00:56;6.30;;;3.75;;
78858;SDS011;68210;52.032;4.634;2024-02-26T10:02:58;6.90;;;4.10;;
78858;SDS011;68210;52.032;4.634;2024-02-26T10:05:03;6.30;;;3.55;;
78858;SDS011;68210;52.032;4.634;2024-02-26T10:07:06;6.60;;;3.75;;
78858;SDS011;68210;52.032;4.634;2024-02-26T10:09:11;8.57;;;3.92;;
78858;SDS011;68210;52.032;4.634;2024-02-26T10:11:11;9.45;;;4.63;;
78858;SDS011;68210;52.032;4.634;2024-02-26T10:13:13;5.82;;;3.60;;
78858;SDS011;68210;52.032;4.634;2024-02-26T10:15:13;7.53;;;3.88;;
78858;SDS011;68210;52.032;4.634;2024-02-26T10:17:14;6.85;;;3.88;;
78858;SDS011;68210;52.032;4.634;2024-02-26T10:19:24;7.22;;;3.95;;
78858;SDS011;68210;52.032;4.634;2024-02-26T10:21:29;6.38;;;3.72;;
78858;SDS011;68210;52.032;4.634;2024-02-26T10:23:29;7.22;;;4.05;;
78858;SDS011;68210;52.032;4.634;2024-02-26T10:25:29;8.93;;;4.80;;
78858;SDS011;68210;52.032;4.634;2024-02-26T10:27:31;9.35;;;4.68;;
78858;SDS011;68210;52.032;4.634;2024-02-26T10:29:32;7.00;;;4.07;;
78858;SDS011;68210;52.032;4.634;2024-02-26T10:31:32;7.18;;;4.00;;
78858;SDS011;68210;52.032;4.634;2024-02-26T10:33:33;7.43;;;3.92;;
78858;SDS011;68210;52.032;4.634;2024-02-26T10:35:37;7.05;;;4.45;;
78858;SDS011;68210;52.032;4.634;2024-02-26T10:37:40;6.65;;;3.80;;
78858;SDS011;68210;52.032;4.634;2024-02-26T10:39:46;7.00;;;3.97;;
78858;SDS011;68210;52.032;4.634;2024-02-26T10:41:47;8.20;;;4.88;;
78858;SDS011;68210;52.032;4.634;2024-02-26T10:43:47;8.00;;;4.72;;
78858;SDS011;68210;52.032;4.634;2024-02-26T10:45:47;9.70;;;4.47;;
78858;SDS011;68210;52.032;4.634;2024-02-26T10:47:48;7.80;;;4.13;;
78858;SDS011;68210;52.032;4.634;2024-02-26T10:49:48;9.80;;;4.65;;
78858;SDS011;68210;52.032;4.634;2024-02-26T10:51:54;8.50;;;4.40;;
78858;SDS011;68210;52.032;4.634;2024-02-26T10:53:59;9.25;;;4.25;;
78858;SDS011;68210;52.032;4.634;2024-02-26T10:56:04;14.00;;;4.22;;
78858;SDS011;68210;52.032;4.634;2024-02-26T10:58:06;10.27;;;4.10;;
78858;SDS011;68210;52.032;4.634;2024-02-26T11:00:08;8.23;;;4.72;;
78858;SDS011;68210;52.032;4.634;2024-02-26T11:02:13;9.75;;;4.60;;
78858;SDS011;68210;52.032;4.634;2024-02-26T11:04:14;8.27;;;4.55;;
78858;SDS011;68210;52.032;4.634;2024-02-26T11:06:16;9.27;;;4.43;;
78858;SDS011;68210;52.032;4.634;2024-02-26T11:08:21;9.73;;;5.15;;
78858;SDS011;68210;52.032;4.634;2024-02-26T11:10:23;6.22;;;4.10;;
78858;SDS011;68210;52.032;4.634;2024-02-26T11:12:29;8.30;;;4.50;;
78858;SDS011;68210;52.032;4.634;2024-02-26T11:14:31;10.13;;;4.50;;
78858;SDS011;68210;52.032;4.634;2024-02-26T11:16:32;9.75;;;4.60;;
78858;SDS011;68210;52.032;4.634;2024-02-26T11:18:35;7.28;;;3.95;;
78858;SDS011;68210;52.032;4.634;2024-02-26T11:20:38;8.43;;;4.30;;
78858;SDS011;68210;52.032;4.634;2024-02-26T11:22:40;8.25;;;4.93;;
78858;SDS011;68210;52.032;4.634;2024-02-26T11:24:40;8.20;;;4.30;;
78858;SDS011;68210;52.032;4.634;2024-02-26T11:26:46;6.90;;;3.65;;
78858;SDS011;68210;52.032;4.634;2024-02-26T11:28:58;7.47;;;4.45;;
78858;SDS011;68210;52.032;4.634;2024-02-26T11:30:59;9.65;;;4.47;;
78858;SDS011;68210;52.032;4.634;2024-02-26T11:33:00;8.77;;;4.97;;
78858;SDS011;68210;52.032;4.634;2024-02-26T11:35:01;9.98;;;4.85;;
78858;SDS011;68210;52.032;4.634;2024-02-26T11:37:13;6.78;;;4.88;;
78858;SDS011;68210;52.032;4.634;2024-02-26T11:39:15;7.22;;;3.85;;
78858;SDS011;68210;52.032;4.634;2024-02-26T11:41:16;8.45;;;4.18;;
78858;SDS011;68210;52.032;4.634;2024-02-26T11:43:17;10.48;;;4.65;;
78858;SDS011;68210;52.032;4.634;2024-02-26T11:47:55;7.25;;;3.97;;
78858;SDS011;68210;52.032;4.634;2024-02-26T11:49:56;9.07;;;4.03;;
78858;SDS011;68210;52.032;4.634;2024-02-26T11:51:57;7.70;;;3.88;;
78858;SDS011;68210;52.032;4.634;2024-02-26T11:54:03;8.13;;;3.53;;
78858;SDS011;68210;52.032;4.634;2024-02-26T11:56:13;7.50;;;3.67;;
78858;SDS011;68210;52.032;4.634;2024-02-26T11:58:19;5.53;;;3.17;;
78858;SDS011;68210;52.032;4.634;2024-02-26T12:00:20;7.20;;;3.83;;
78858;SDS011;68210;52.032;4.634;2024-02-26T12:04:42;5.93;;;3.70;;
78858;SDS011;68210;52.032;4.634;2024-02-26T12:06:44;6.30;;;3.50;;
78858;SDS011;68210;52.032;4.634;2024-02-26T12:08:52;7.55;;;3.83;;
78858;SDS011;68210;52.032;4.634;2024-02-26T12:10:53;7.07;;;3.22;;